createdAt,value
2018-03-26T00:01:35.154Z,50.32
2018-03-26T00:04:02.068Z,50.27
2018-03-26T00:06:28.993Z,50.26
2018-03-26T00:08:55.916Z,50.20
2018-03-26T00:11:22.866Z,50.10
2018-03-26T00:13:49.784Z,50.11
2018-03-26T00:16:16.714Z,50.09
2018-03-26T00:18:43.637Z,50.05
2018-03-26T00:21:10.567Z,50.01
2018-03-26T00:23:37.493Z,50.03
2018-03-26T00:26:04.408Z,50.06
2018-03-26T00:28:31.359Z,50.07
2018-03-26T00:30:58.283Z,50.12
2018-03-26T00:33:25.217Z,50.10
2018-03-26T00:35:52.166Z,50.21
2018-03-26T00:38:19.089Z,50.22
2018-03-26T00:40:46.011Z,50.23
2018-03-26T00:43:12.935Z,50.24
2018-03-26T00:45:39.857Z,50.23
2018-03-26T00:48:06.787Z,50.19
2018-03-26T00:50:33.708Z,50.16
2018-03-26T00:53:00.633Z,50.12
2018-03-26T00:55:27.562Z,50.14
2018-03-26T00:57:54.523Z,50.08
2018-03-26T01:00:21.447Z,50.11
2018-03-26T01:02:48.367Z,50.09
2018-03-26T01:05:15.297Z,50.07
2018-03-26T01:07:42.248Z,50.00
2018-03-26T01:10:09.172Z,49.93
2018-03-26T01:12:36.088Z,49.81
2018-03-26T01:15:03.024Z,49.69
2018-03-26T01:17:29.942Z,49.55
2018-03-26T01:19:56.886Z,49.49
2018-03-26T01:22:23.808Z,49.56
2018-03-26T01:24:50.764Z,49.52
2018-03-26T01:27:17.685Z,49.47
2018-03-26T01:29:44.603Z,49.40
2018-03-26T01:32:11.530Z,49.38
2018-03-26T01:34:38.455Z,49.26
2018-03-26T01:37:05.384Z,49.23
2018-03-26T01:39:32.303Z,49.23
2018-03-26T01:41:59.235Z,49.21
2018-03-26T01:44:26.160Z,49.22
2018-03-26T01:46:53.115Z,49.21
2018-03-26T01:49:20.034Z,49.21
2018-03-26T01:51:46.958Z,49.23
2018-03-26T01:54:13.887Z,49.32
2018-03-26T01:56:40.850Z,49.36
2018-03-26T01:59:07.731Z,49.38
2018-03-26T02:01:34.652Z,49.40
2018-03-26T02:04:01.579Z,49.44
2018-03-26T02:06:28.524Z,49.44
2018-03-26T02:08:55.440Z,49.44
2018-03-26T02:11:22.369Z,49.43
2018-03-26T02:13:49.287Z,49.43
2018-03-26T02:16:16.207Z,49.43
2018-03-26T02:18:43.128Z,49.42
2018-03-26T02:21:10.049Z,49.41
2018-03-26T02:23:36.971Z,49.41
2018-03-26T02:26:03.896Z,49.36
2018-03-26T02:28:30.831Z,49.38
2018-03-26T02:30:57.759Z,49.34
2018-03-26T02:33:24.682Z,49.24
2018-03-26T02:35:51.604Z,49.09
2018-03-26T02:38:18.544Z,49.10
2018-03-26T02:40:48.255Z,49.09
2018-03-26T02:43:17.063Z,49.07
2018-03-26T02:45:44.442Z,48.97
2018-03-26T02:48:11.397Z,48.86
2018-03-26T02:50:38.375Z,48.85
2018-03-26T02:53:06.276Z,48.81
2018-03-26T02:55:34.163Z,48.77
2018-03-26T02:58:01.947Z,48.77
2018-03-26T03:00:28.875Z,48.76
2018-03-26T03:02:56.762Z,48.74
2018-03-26T03:05:23.763Z,48.68
2018-03-26T03:07:50.812Z,48.64
2018-03-26T03:10:17.815Z,48.67
2018-03-26T03:12:46.601Z,48.71
2018-03-26T03:15:13.657Z,48.74
2018-03-26T03:17:40.709Z,48.76
2018-03-26T03:20:07.710Z,48.82
2018-03-26T03:22:34.778Z,48.87
2018-03-26T03:25:03.489Z,48.96
2018-03-26T03:27:30.481Z,49.03
2018-03-26T03:29:57.494Z,49.11
2018-03-26T03:32:25.420Z,49.18
2018-03-26T03:34:53.265Z,49.19
2018-03-26T03:37:21.093Z,49.17
2018-03-26T03:39:48.977Z,49.19
2018-03-26T03:42:16.380Z,49.21
2018-03-26T03:44:43.393Z,49.34
2018-03-26T03:47:10.688Z,49.38
2018-03-26T03:49:37.739Z,49.55
2018-03-26T03:52:05.600Z,49.59
2018-03-26T03:54:33.734Z,49.53
2018-03-26T03:57:01.603Z,49.51
2018-03-26T03:59:28.608Z,49.40
2018-03-26T04:01:55.660Z,49.30
2018-03-26T04:04:23.488Z,49.32
2018-03-26T04:06:51.413Z,49.24
2018-03-26T04:09:19.298Z,49.12
2018-03-26T04:11:46.219Z,49.03
2018-03-26T04:14:13.221Z,48.95
2018-03-26T04:16:41.058Z,48.91
2018-03-26T04:19:08.882Z,48.82
2018-03-26T04:21:36.832Z,48.81
2018-03-26T04:24:04.716Z,48.76
2018-03-26T04:26:32.607Z,48.73
2018-03-26T04:29:03.288Z,48.71
2018-03-26T04:31:32.019Z,48.68
2018-03-26T04:33:59.747Z,48.69
2018-03-26T04:36:27.007Z,48.76
2018-03-26T04:38:54.904Z,48.71
2018-03-26T04:41:21.927Z,48.63
2018-03-26T04:43:49.237Z,48.54
2018-03-26T04:46:17.108Z,48.57
2018-03-26T04:48:44.040Z,48.64
2018-03-26T04:51:11.927Z,48.75
2018-03-26T04:53:39.845Z,48.64
2018-03-26T04:56:06.889Z,48.62
2018-03-26T04:58:33.815Z,48.67
2018-03-26T05:01:00.815Z,48.67
2018-03-26T05:03:40.666Z,48.67
2018-03-26T05:06:07.692Z,48.65
2018-03-26T05:08:35.563Z,48.63
2018-03-26T05:11:02.574Z,48.61
2018-03-26T05:13:29.923Z,48.58
2018-03-26T05:15:56.935Z,48.45
2018-03-26T05:18:23.991Z,48.36
2018-03-26T05:20:51.794Z,48.30
2018-03-26T05:23:19.544Z,48.17
2018-03-26T05:25:46.536Z,48.12
2018-03-26T05:28:13.572Z,48.09
2018-03-26T05:30:41.292Z,48.05
2018-03-26T05:33:08.354Z,48.02
2018-03-26T05:35:36.219Z,48.04
2018-03-26T05:38:03.390Z,47.97
2018-03-26T05:40:30.461Z,47.97
2018-03-26T05:42:57.410Z,47.97
2018-03-26T05:45:24.399Z,48.00
2018-03-26T05:47:51.467Z,47.97
2018-03-26T05:50:18.699Z,47.98
2018-03-26T05:52:45.738Z,48.01
2018-03-26T05:55:12.756Z,48.03
2018-03-26T05:57:39.841Z,48.06
2018-03-26T06:00:06.936Z,48.11
2018-03-26T06:02:34.695Z,48.12
2018-03-26T06:05:01.959Z,48.24
2018-03-26T06:07:28.971Z,48.30
2018-03-26T06:09:56.304Z,48.41
2018-03-26T06:12:24.144Z,48.43
2018-03-26T06:14:52.166Z,48.58
2018-03-26T06:17:19.097Z,48.67
2018-03-26T06:19:47.852Z,48.69
2018-03-26T06:22:15.058Z,48.61
2018-03-26T06:24:42.107Z,48.70
2018-03-26T06:27:09.880Z,48.80
2018-03-26T06:29:37.781Z,48.83
2018-03-26T06:32:05.666Z,48.89
2018-03-26T06:34:32.598Z,49.00
2018-03-26T06:37:02.774Z,48.94
2018-03-26T06:39:30.625Z,48.82
2018-03-26T06:41:57.544Z,48.68
2018-03-26T06:44:24.553Z,48.66
2018-03-26T06:46:51.855Z,48.61
2018-03-26T06:49:18.907Z,48.57
2018-03-26T06:51:46.825Z,48.53
2018-03-26T06:54:14.620Z,48.49
2018-03-26T06:56:41.569Z,48.46
2018-03-26T06:59:08.552Z,48.45
2018-03-26T07:01:36.437Z,48.43
2018-03-26T07:04:03.431Z,48.39
2018-03-26T07:06:34.184Z,48.31
2018-03-26T07:09:01.241Z,48.28
2018-03-26T07:11:28.239Z,48.31
2018-03-26T07:13:55.250Z,48.33
2018-03-26T07:16:22.977Z,48.33
2018-03-26T07:18:50.020Z,48.39
2018-03-26T07:21:17.759Z,48.37
2018-03-26T07:23:45.580Z,48.39
2018-03-26T07:33:50.862Z,48.36
2018-03-26T07:36:20.618Z,48.28
2018-03-26T07:41:19.661Z,48.23
2018-03-26T07:51:19.519Z,48.22
2018-03-26T07:53:47.602Z,48.35
2018-03-26T07:58:47.336Z,48.05
2018-03-26T08:06:17.750Z,48.11
2018-03-26T08:16:18.707Z,48.18
2018-03-26T08:18:48.850Z,48.02
2018-03-26T08:28:53.483Z,48.18
2018-03-26T08:36:22.131Z,48.30
2018-03-26T08:46:20.165Z,48.32
2018-03-26T08:51:21.659Z,48.23
2018-03-26T08:56:23.602Z,48.19
2018-03-26T09:03:57.109Z,48.06
2018-03-26T09:06:27.133Z,48.01
2018-03-26T09:11:26.376Z,47.96
2018-03-26T09:23:58.844Z,48.05
2018-03-26T09:28:57.738Z,48.04
2018-03-26T09:36:28.708Z,48.12
2018-03-26T09:38:58.817Z,48.11
2018-03-26T09:43:57.413Z,48.13
2018-03-26T09:53:58.442Z,48.19
2018-03-26T10:01:31.908Z,48.12
2018-03-26T10:09:06.538Z,48.07
2018-03-26T10:11:36.794Z,48.07
2018-03-26T10:19:05.248Z,48.00
2018-03-26T10:24:03.929Z,47.99
2018-03-26T10:31:32.358Z,47.87
2018-03-26T10:36:31.019Z,47.74
2018-03-26T10:41:30.588Z,47.55
2018-03-26T10:48:58.891Z,47.47
2018-03-26T10:59:02.219Z,47.41
2018-03-26T11:04:00.890Z,47.35
2018-03-26T11:06:28.882Z,47.37
2018-03-26T11:14:00.441Z,47.38
2018-03-26T11:21:29.853Z,47.18
2018-03-26T11:23:59.921Z,47.09
2018-03-26T11:28:58.601Z,46.87
2018-03-26T11:44:03.254Z,46.72
2018-03-26T11:51:35.866Z,46.80
2018-03-26T11:56:41.000Z,46.77
2018-03-26T12:09:15.653Z,46.86
2018-03-26T12:14:14.498Z,46.81
2018-03-26T12:19:13.861Z,46.83
2018-03-26T12:26:42.623Z,47.02
2018-03-26T12:31:42.080Z,47.13
2018-03-26T12:36:40.660Z,47.21
2018-03-26T12:41:39.641Z,47.24
2018-03-26T12:46:38.401Z,47.27
2018-03-26T12:51:37.889Z,47.38
2018-03-26T13:01:38.199Z,47.34
2018-03-26T13:06:37.776Z,47.36
2018-03-26T13:19:09.736Z,47.46
2018-03-26T13:24:09.044Z,47.43
2018-03-26T13:29:07.896Z,47.41
2018-03-26T13:39:09.727Z,47.36
2018-03-26T13:41:42.167Z,47.36
2018-03-26T13:54:14.952Z,47.24
2018-03-26T13:59:13.922Z,47.29
2018-03-26T14:09:16.298Z,47.16
2018-03-26T14:14:17.766Z,47.17
2018-03-26T14:21:49.825Z,47.06
2018-03-26T14:24:19.680Z,47.05
2018-03-26T14:29:18.441Z,47.06
2018-03-26T14:34:17.549Z,46.98
2018-03-26T14:41:45.160Z,46.91
2018-03-26T14:44:12.118Z,46.90
2018-03-26T14:46:39.040Z,46.89
2018-03-26T14:49:05.966Z,46.84
2018-03-26T14:51:32.925Z,46.80
2018-03-26T14:56:30.161Z,46.85
2018-03-26T15:03:58.067Z,47.00
2018-03-26T15:11:29.117Z,47.20
2018-03-26T15:16:27.967Z,47.25
2018-03-26T15:21:26.625Z,47.33
2018-03-26T15:39:06.284Z,47.34
2018-03-26T15:46:34.195Z,47.28
2018-03-26T15:51:36.414Z,47.26
2018-03-26T15:54:08.809Z,47.29
2018-03-26T15:56:35.748Z,47.30
2018-03-26T15:59:02.680Z,47.39
2018-03-26T16:01:29.602Z,47.39
2018-03-26T16:03:59.729Z,47.45
2018-03-26T16:08:57.875Z,47.57
2018-03-26T16:24:03.884Z,47.68
2018-03-26T16:26:33.531Z,47.74
2018-03-26T16:34:03.648Z,47.78
2018-03-26T16:36:30.996Z,47.92
2018-03-26T16:43:56.526Z,48.02
2018-03-26T16:46:23.459Z,47.99
2018-03-26T16:48:50.404Z,47.99
2018-03-26T16:56:21.091Z,47.99
2018-03-26T17:01:20.404Z,48.03
2018-03-26T17:03:47.455Z,48.03
2018-03-26T17:06:14.314Z,48.06
2018-03-26T17:08:41.277Z,48.27
2018-03-26T17:11:11.666Z,48.37
2018-03-26T17:16:07.928Z,48.68
2018-03-26T17:18:34.888Z,48.84
2018-03-26T17:21:01.987Z,48.80
2018-03-26T17:23:28.926Z,48.84
2018-03-26T17:25:56.015Z,48.85
2018-03-26T17:36:08.960Z,48.69
2018-03-26T17:51:17.018Z,48.74
2018-03-26T18:21:43.566Z,48.83
2018-03-26T18:26:42.348Z,48.87
2018-03-26T18:31:38.807Z,49.03
2018-03-26T18:34:05.763Z,49.17
2018-03-26T18:39:10.928Z,49.47
2018-03-26T18:44:07.193Z,49.68
2018-03-26T18:46:34.221Z,49.77
2018-03-26T18:51:36.085Z,49.78
2018-03-26T18:54:06.231Z,49.89
2018-03-26T18:56:33.185Z,50.11
2018-03-26T19:01:32.308Z,50.35
2018-03-26T19:03:59.257Z,50.48
2018-03-26T19:06:26.457Z,50.50
2018-03-26T19:11:25.044Z,50.85
2018-03-26T19:13:51.986Z,50.87
2018-03-26T19:16:18.928Z,50.92
2018-03-26T19:18:45.877Z,51.01
